Date,TemperatureHighF,TemperatureAvgF,TemperatureLowF,DewpointHighF,DewpointAvgF,DewpointLowF,HumidityHigh,HumidityAvg,HumidityLow,PressureMaxIn,PressureMinIn,WindSpeedMaxMPH,WindSpeedAvgMPH,GustSpeedMaxMPH,PrecipitationSumIn
2013-1-1,41,40,39,40,38,37,98,95,91,30.14,30.00,8,6,0,0.00
2013-1-2,34,31,28,25,24,22,86,76,61,30.27,30.20,8,6,0,0.00
2013-1-3,42,35,27,32,29,26,97,80,58,30.40,30.24,7,3,0,0.00
2013-1-4,45,43,36,33,31,30,83,65,56,30.49,30.38,5,3,0,0.00
2013-1-5,46,40,31,36,34,30,95,81,67,30.38,30.26,5,3,0,0.00
2013-1-6,50,40,34,40,37,34,99,88,59,30.32,30.23,5,4,0,0.00
2013-1-7,45,36,28,28,27,26,98,72,49,30.40,30.31,7,4,0,0.00
2013-1-8,53,42,32,40,34,29,92,76,58,30.25,30.16,4,2,0,0.00
2013-1-9,54,50,48,53,49,44,98,95,71,30.33,30.20,9,4,0,0.00
2013-1-24,38,38,38,22,22,22,53,52,51,30.33,30.31,9,9,0,0.00
2013-1-26,50,48,47,38,36,34,71,62,56,30.26,30.25,3,2,0,0.00
2013-1-27,63,57,48,56,50,38,88,76,67,30.22,30.11,8,5,0,0.00
2013-1-28,69,63,59,61,59,54,92,85,75,30.15,30.05,9,7,0,0.00
2013-1-29,72,67,62,64,61,59,91,80,66,30.01,29.52,14,9,0,0.00
2013-1-30,55,47,37,54,39,27,98,74,58,30.02,29.57,20,13,0,0.00
2013-1-31,56,46,30,35,30,21,91,56,36,30.31,30.07,15,7,0,0.00
2013-2-1,35,29,23,22,16,11,81,58,39,30.52,30.28,11,5,0,0.00
2013-2-2,55,40,28,37,30,22,85,71,48,30.23,30.16,9,3,0,0.00
2013-2-3,55,45,37,37,31,27,84,59,36,30.22,30.10,14,6,0,0.00
2013-2-4,53,46,39,45,37,29,95,72,51,30.07,29.90,8,4,0,0.00
2013-2-5,58,47,42,50,45,41,98,93,72,30.05,29.91,3,2,0,0.00
2013-2-6,55,46,36,49,44,36,99,91,76,30.20,30.03,7,3,0,0.00
2013-2-7,65,56,47,56,50,41,97,83,71,30.00,29.89,6,3,0,0.00
2013-2-8,54,45,37,53,39,31,95,79,68,30.29,29.96,14,10,0,0.00
2013-2-9,48,41,31,39,34,30,95,78,60,30.30,30.02,6,4,0,0.00
2013-2-10,63,57,53,58,52,39,98,83,58,29.97,29.76,10,7,0,0.00
2013-2-11,56,49,44,42,36,27,81,61,33,30.22,29.99,8,3,0,0.00
2013-2-12,48,45,38,42,38,36,90,77,65,30.14,29.82,8,4,0,0.00
2013-2-13,50,42,38,41,38,36,97,86,65,30.04,29.81,12,6,0,0.00
2013-2-14,61,47,35,39,36,31,96,70,34,30.08,29.99,9,4,0,0.00
2013-2-15,51,45,37,40,32,25,85,62,37,30.23,30.07,12,8,0,0.00
2013-2-16,39,34,29,24,21,18,72,59,43,30.29,30.21,12,6,0,0.00
2013-2-17,54,44,34,37,30,24,72,58,42,30.23,30.05,9,6,0,0.00
2013-2-18,59,51,43,53,45,38,93,80,70,30.04,29.74,15,10,0,0.00
2013-2-19,50,42,35,36,27,20,81,57,30,30.27,30.03,13,7,0,0.00
2013-2-20,36,33,32,28,21,15,84,61,49,30.33,30.17,9,5,0,0.00
2013-2-21,41,36,32,40,33,25,98,87,65,30.12,29.72,9,6,0,0.00
2013-2-22,48,40,33,40,36,33,100,88,72,30.08,29.89,9,5,0,0.00
2013-2-23,47,38,31,33,30,26,88,72,52,30.06,29.97,8,4,0,0.00
2013-2-24,57,45,29,37,33,28,95,65,42,30.08,29.89,6,4,0,0.00
2013-2-25,57,50,41,54,41,31,97,73,53,29.85,29.31,10,7,0,0.00
2013-2-26,47,43,41,46,36,32,93,77,65,29.83,29.39,19,13,0,0.00
2013-2-27,47,42,38,36,33,31,80,70,57,29.98,29.85,15,8,0,0.00
2013-2-28,46,40,33,32,29,28,81,68,54,30.11,29.99,12,8,0,0.00
2013-3-1,39,35,31,29,27,25,86,72,61,30.16,30.10,12,7,0,0.00
2013-3-2,34,32,25,28,23,21,87,71,57,30.23,30.15,14,8,0,0.00
2013-3-3,47,36,23,30,25,22,95,67,41,30.23,30.03,5,3,0,0.00
2013-3-4,63,54,40,51,40,25,67,60,51,29.97,29.71,11,8,0,0.00
2013-3-5,61,50,41,56,38,24,90,67,39,30.18,29.77,19,12,0,0.00
2013-3-6,45,38,32,31,26,22,84,63,48,30.36,30.20,13,7,0,0.00
2013-3-7,54,43,34,35,31,28,88,66,40,30.38,30.25,4,2,0,0.00
2013-3-8,60,48,34,38,33,29,86,59,32,30.36,30.18,6,3,0,0.00
2013-3-9,67,58,48,43,39,35,77,49,32,30.13,29.91,10,5,0,0.00
2013-3-10,63,56,47,58,52,41,96,87,71,29.89,29.77,13,7,0,0.00
2013-3-11,49,42,37,40,33,30,83,70,54,30.01,29.87,13,8,0,0.00
2013-3-12,57,45,31,36,31,20,98,63,30,30.21,30.01,10,3,0,0.00
2013-3-13,51,44,36,37,27,23,71,52,40,30.41,30.22,14,8,0,0.00
2013-3-14,63,46,33,39,33,28,92,63,34,30.40,30.15,8,3,0,0.00
2013-3-15,76,61,45,52,46,38,80,60,41,30.15,29.90,12,6,0,0.00
2013-3-16,77,66,57,55,52,45,74,61,45,29.94,29.83,12,7,0,0.00
2013-3-17,67,56,49,53,48,44,88,78,62,29.91,29.69,9,4,0,0.00
2013-3-18,57,51,46,53,47,42,97,88,72,29.99,29.69,13,6,0,0.00
2013-3-19,56,47,36,39,32,22,97,61,27,30.21,30.03,8,5,0,0.00
2013-3-20,54,47,35,37,29,20,82,52,32,30.25,30.07,13,8,0,0.00
2013-3-21,47,40,31,35,20,12,93,47,27,30.10,29.90,8,5,0,0.00
2013-3-22,46,43,36,45,41,35,98,93,89,29.93,29.85,7,5,0,0.00
2013-3-23,52,48,46,49,46,45,98,92,86,29.89,29.68,6,5,0,0.00
2013-3-24,49,43,37,48,36,25,98,77,60,29.98,29.61,23,14,0,0.00
2013-3-25,43,37,31,26,23,20,71,58,47,30.25,29.98,17,12,0,0.00
2013-3-26,46,38,30,29,25,23,81,60,41,30.38,30.25,12,6,0,0.00
2013-3-27,56,44,30,33,29,26,86,60,37,30.41,30.25,6,3,0,0.00
2013-3-28,68,55,37,41,37,32,89,55,33,30.33,30.21,5,4,0,0.00
2013-3-29,58,53,49,54,47,38,96,80,59,30.25,30.16,6,3,0,0.00
2013-3-30,61,55,52,58,50,-100,98,95,88,30.17,29.95,5,3,0,0.00
2013-3-31,61,56,50,56,54,50,99,92,79,29.99,29.87,7,3,0,0.00
2013-4-1,64,55,42,50,46,42,99,75,53,30.12,29.93,9,4,0,0.00
2013-4-2,53,46,39,43,35,31,91,68,49,30.26,30.10,11,8,0,0.00
2013-4-3,48,43,41,39,33,28,84,68,55,30.22,30.12,9,7,0,0.00
2013-4-4,47,43,41,45,41,35,98,91,63,30.12,29.99,10,6,0,0.00
2013-4-5,65,53,34,45,39,34,99,65,38,30.19,30.06,6,3,0,0.00
2013-4-6,71,59,47,49,44,39,82,60,37,30.10,29.93,10,6,0,0.00
2013-4-7,69,62,56,57,54,51,86,75,62,30.07,29.92,7,5,0,0.00
2013-4-8,77,68,61,61,58,53,86,72,53,30.02,29.86,9,6,0,0.00
2013-4-9,83,73,63,66,64,59,92,74,56,30.00,29.87,10,6,0,0.00
2013-4-10,81,75,70,67,66,65,88,76,59,29.95,29.75,11,7,0,0.00
2013-4-11,50,48,45,49,46,42,97,91,73,29.81,29.73,11,7,0,0.00
2013-4-12,69,55,41,50,44,40,98,70,37,29.98,29.82,9,4,0,0.00
2013-4-13,73,59,46,51,44,39,83,59,37,30.12,29.92,5,3,0,0.00
2013-4-14,71,64,58,58,54,48,83,69,60,29.91,29.74,9,6,0,0.00
2013-4-15,77,66,57,64,60,55,93,80,61,29.94,29.82,7,5,0,0.00
2013-4-16,84,76,67,71,68,62,94,78,59,30.08,29.91,9,6,0,0.00
2013-4-17,84,77,69,70,68,66,90,74,56,30.11,29.85,10,6,0,0.00
2013-4-18,77,67,47,67,61,41,96,80,66,29.88,29.64,15,10,0,0.00
2013-4-19,56,49,44,39,34,29,75,57,40,30.13,29.90,13,9,0,0.00
2013-4-20,68,56,41,47,39,33,89,58,31,30.27,30.13,5,2,0,0.00
2013-4-21,69,61,50,45,39,34,72,48,28,30.33,30.19,6,4,0,0.00
2013-4-22,74,63,48,51,44,41,79,54,33,30.20,30.01,7,4,0,0.00
2013-4-23,79,68,60,62,58,50,89,71,51,30.07,29.91,10,7,0,0.00
2013-4-24,57,51,45,44,41,39,88,68,55,30.27,30.22,11,6,0,0.00
2013-4-25,69,55,39,46,41,36,98,65,31,30.40,30.26,4,2,0,0.00
2013-4-26,65,58,50,50,45,39,87,64,38,30.37,30.20,8,4,0,0.00
2013-4-27,77,64,54,66,60,49,96,84,68,30.19,29.91,9,6,0,0.00
2013-4-28,67,60,54,56,54,51,93,83,57,30.03,29.95,7,4,0,0.00
2013-4-29,80,66,51,61,55,49,97,71,47,30.03,29.91,5,4,0,0.00
2013-4-30,83,76,61,63,57,53,74,52,37,29.98,29.90,6,5,0,0.00
2013-5-1,72,68,64,64,62,57,87,80,64,30.08,29.94,6,3,0,0.00
2013-5-2,67,65,63,63,61,59,97,89,76,30.13,30.03,5,3,0,0.00
2013-5-3,59,44,39,58,42,37,97,91,73,30.01,29.94,13,9,0,0.00
2013-5-4,53,47,37,45,41,36,97,81,60,29.95,29.87,9,4,0,0.00
2013-5-5,60,51,43,49,45,41,96,80,53,30.01,29.88,11,6,0,0.00
2013-5-6,65,59,53,57,54,50,96,85,69,29.99,29.90,11,6,0,0.00
2013-5-7,74,64,53,59,56,53,98,77,52,30.07,29.96,5,2,0,0.00
2013-5-8,81,70,55,62,57,53,98,68,40,30.13,30.01,5,2,0,0.00
2013-5-9,80,72,65,66,62,58,90,72,50,30.17,29.99,9,4,0,0.00
2013-5-10,77,67,64,67,61,-100,97,88,71,30.02,29.89,6,3,0,0.00
2013-5-11,73,64,61,64,52,-100,93,73,48,30.10,29.97,11,7,0,0.00
2013-5-12,66,60,52,47,40,31,71,50,27,30.25,30.12,9,6,0,0.00
2013-5-13,77,65,49,53,49,42,90,58,36,30.29,30.13,6,3,0,0.00
2013-5-14,86,74,59,61,55,52,78,54,33,30.16,30.05,11,6,0,0.00
2013-5-15,84,73,61,59,54,49,77,53,31,30.14,29.98,10,5,0,0.00
2013-5-16,75,60,64,64,35,-100,88,75,55,30.01,29.90,6,4,0,0.00
2013-5-17,81,70,64,69,54,-100,94,82,58,29.97,29.89,7,5,0,0.00
2013-5-18,84,76,70,73,71,69,96,83,65,30.05,29.93,5,3,0,0.00
2013-5-19,86,79,71,71,68,66,93,72,54,30.00,29.87,8,5,0,0.00
2013-5-20,89,80,72,71,69,66,92,70,47,29.97,29.83,9,6,0,0.00
2013-5-21,85,70,64,72,66,62,96,88,64,29.96,29.79,14,6,0,0.00
2013-5-22,80,71,63,65,63,60,94,77,52,29.93,29.80,10,5,0,0.00
2013-5-23,81,74,63,66,62,59,95,69,53,30.12,29.93,6,3,0,0.00
2013-5-24,77,67,59,58,52,47,82,61,35,30.29,30.15,11,7,0,0.00
2013-5-25,80,69,57,59,53,48,86,60,39,30.31,30.15,6,3,0,0.00
2013-5-26,85,75,61,62,58,53,88,59,36,30.22,30.08,5,3,0,0.00
2013-5-27,86,78,69,69,64,61,78,64,44,30.12,29.97,8,5,0,0.00
2013-5-28,87,79,71,69,64,55,87,63,36,30.05,29.95,7,6,0,0.00
2013-5-29,86,77,69,69,65,61,89,67,50,30.04,29.92,11,6,0,0.00
2013-5-30,85,77,72,72,70,67,93,79,58,30.02,29.88,10,7,0,0.00
2013-5-31,85,79,73,73,71,70,93,78,64,29.99,29.84,9,6,0,0.00
2013-6-1,79,72,66,72,65,-100,97,89,67,29.97,29.84,8,5,0,0.00
2013-6-2,77,72,68,67,64,61,97,79,61,30.00,29.94,9,5,0,0.00
2013-6-3,80,70,60,64,60,57,95,72,48,30.05,29.95,7,5,0,0.00
2013-6-4,86,76,63,69,63,60,91,67,45,30.04,29.94,4,2,0,0.00
2013-6-5,89,83,75,73,70,67,86,64,48,29.99,29.80,11,4,0,0.00
2013-6-6,80,74,68,71,66,63,91,76,59,29.89,29.80,9,5,0,0.00
2013-6-7,81,73,67,63,57,49,80,60,32,29.91,29.82,11,7,0,0.00
2013-6-8,86,74,60,62,56,49,94,57,28,30.02,29.89,5,2,0,0.00
2013-6-9,88,77,69,70,66,60,88,70,48,29.97,29.85,12,5,0,0.00
2013-6-10,93,81,68,69,66,61,94,63,34,29.96,29.90,10,6,0,0.00
2013-6-11,95,85,73,73,69,65,88,62,37,30.06,29.94,8,5,0,0.00
2013-6-12,94,85,74,73,72,70,91,67,48,30.08,29.94,9,6,0,0.00
2013-6-13,94,85,78,72,70,65,81,62,45,29.98,29.90,13,8,0,0.00
2013-6-14,88,80,67,65,59,52,91,52,30,30.06,29.95,8,4,0,0.00
2013-6-15,87,75,67,65,63,61,92,68,41,30.08,29.98,5,2,0,0.00
2013-6-17,82,79,73,72,71,69,88,76,67,29.97,29.87,8,6,0,0.00
2013-6-18,85,80,73,68,66,64,83,65,51,29.96,29.92,7,4,0,0.00
2013-6-19,92,80,67,69,65,59,97,65,35,30.05,29.92,4,2,0,0.00
2013-6-20,91,79,70,69,67,62,94,69,39,30.14,30.02,5,2,0,0.00
2013-6-22,92,87,79,70,67,62,69,53,39,30.14,30.00,7,5,0,0.00
2013-6-23,92,83,72,71,69,68,88,64,46,30.09,30.00,8,4,0,0.00
2013-6-24,93,85,74,74,70,65,90,64,40,30.13,30.01,6,4,0,0.00
2013-6-25,92,84,75,73,69,65,91,65,44,30.07,29.92,8,5,0,0.00
2013-6-26,93,85,75,73,70,66,88,62,42,29.99,29.87,11,7,0,0.00
2013-6-27,98,85,77,74,72,68,84,67,42,29.96,29.81,9,6,0,0.00
2013-6-28,90,83,76,76,71,66,90,68,46,29.85,29.73,10,5,0,0.00
2013-6-29,89,80,68,69,60,52,90,54,29,29.78,29.71,12,6,0,0.00
2013-6-30,81,74,67,63,62,59,82,65,49,29.83,29.72,12,7,0,0.00
2013-7-1,83,73,66,64,62,59,91,71,46,29.92,29.82,12,7,0,0.00
2013-7-2,83,72,61,62,59,54,94,65,37,30.02,29.91,8,4,0,0.00
2013-7-3,83,73,59,62,58,51,93,63,34,30.10,30.01,7,4,0,0.00
2013-7-4,88,78,61,67,60,55,93,60,33,30.05,29.94,4,2,0,0.00
2013-7-5,87,77,69,72,68,63,96,74,50,30.05,29.96,9,4,0,0.00
2013-7-6,88,78,70,70,69,66,95,76,48,30.05,29.98,5,3,0,0.00
2013-7-7,89,81,72,72,70,68,93,71,52,30.10,30.00,8,4,0,0.00
2013-7-8,92,77,72,75,63,-100,96,75,47,30.15,30.05,5,3,0,0.00
2013-7-9,94,84,75,74,72,70,90,71,49,30.14,30.01,7,3,0,0.00
2013-7-10,95,80,76,73,63,-100,86,65,42,30.04,29.97,8,4,0,0.00
2013-7-11,93,89,80,73,71,66,67,56,49,29.97,29.90,10,6,0,0.00
2013-7-12,87,78,66,65,61,59,88,57,40,30.04,29.94,11,7,0,0.00
2013-7-13,87,78,65,63,59,56,85,56,35,30.05,29.94,7,4,0,0.00
2013-7-14,90,78,66,71,67,61,89,71,44,30.05,29.93,6,3,0,0.00
2013-7-15,89,78,72,74,72,70,95,82,56,30.15,30.03,5,3,0,0.00
2013-7-16,91,83,74,73,71,67,93,68,48,30.26,30.15,6,4,0,0.00
2013-7-17,94,84,71,74,71,65,95,68,40,30.31,30.17,4,2,0,0.00
2013-7-18,91,79,71,75,72,70,97,81,54,30.17,30.04,9,4,0,0.00
2013-7-19,87,79,71,73,71,69,98,78,58,30.08,29.95,4,2,0,0.00
2013-7-20,90,81,73,75,73,70,94,76,55,29.98,29.87,6,3,0,0.00
2013-7-21,89,81,72,74,72,68,94,75,53,29.98,29.88,8,4,0,0.00
2013-7-22,84,77,75,75,73,72,92,86,69,29.98,29.86,11,4,0,0.00
2013-7-23,86,77,69,77,73,68,95,87,74,29.96,29.83,7,3,0,0.00
2013-7-24,83,78,72,74,72,70,94,82,71,29.98,29.85,7,4,0,0.00
2013-7-25,81,74,66,70,64,57,94,74,44,30.09,29.97,7,4,0,0.00
2013-7-26,80,72,62,70,65,62,98,81,56,30.08,29.98,4,2,0,0.00
2013-7-27,83,74,65,71,67,64,95,81,59,30.00,29.93,6,3,0,0.00
2013-7-28,85,75,67,69,65,63,96,72,51,30.06,29.95,6,3,0,0.00
2013-7-29,89,79,67,71,66,61,90,67,50,30.15,30.04,6,3,0,0.00
2013-7-30,84,80,76,74,72,69,89,77,66,30.11,29.99,5,3,0,0.00
2013-7-31,90,82,75,76,73,71,94,76,59,30.07,29.94,8,4,0,0.00
2013-8-1,87,80,71,75,72,68,98,79,60,30.08,29.96,6,4,0,0.00
2013-8-2,90,80,66,72,69,65,97,71,47,30.05,29.95,5,3,0,0.00
2013-8-3,86,79,74,76,73,72,93,84,67,30.05,29.92,6,3,0,0.00
2013-8-4,88,79,68,75,72,68,98,80,60,30.14,30.03,5,2,0,0.00
2013-8-5,89,79,75,79,74,71,95,85,73,30.03,29.91,5,3,0,0.00
2013-8-6,91,84,75,78,76,72,93,77,62,29.97,29.85,5,3,0,0.00
2013-8-7,91,83,75,77,74,72,92,76,56,29.96,29.85,8,3,0,0.00
2013-8-8,95,87,77,78,75,73,93,70,54,29.97,29.86,5,3,0,0.00
2013-8-9,95,83,72,77,74,70,95,75,50,30.02,29.90,6,2,0,0.00
2013-8-10,89,80,74,75,73,71,94,81,56,30.13,29.98,8,3,0,0.00
2013-8-11,89,81,75,78,75,74,96,83,64,30.13,30.03,4,2,0,0.00
2013-8-25,87,80,73,74,73,71,96,78,60,30.24,30.12,6,3,0,0.00
2013-8-26,86,78,70,71,69,67,95,75,54,30.26,30.13,4,2,0,0.00
2013-8-27,90,80,71,65,65,64,82,61,42,30.16,30.10,5,3,0,0.00
2013-8-28,92,87,77,66,65,64,71,51,39,30.07,30.02,3,2,0,0.00
2013-8-29,92,80,70,72,68,66,88,71,48,30.10,29.98,5,2,0,0.00
2013-8-30,95,89,72,69,68,66,92,53,40,30.04,29.94,5,3,0,0.00
2013-8-31,95,79,74,72,61,-100,83,62,38,29.93,29.83,6,2,0,0.00
2013-9-1,97,85,73,75,71,68,87,64,38,29.91,29.81,6,3,0,0.00
2013-9-2,87,80,74,75,73,71,94,81,62,29.95,29.82,8,3,0,0.00
2013-9-3,88,79,67,72,66,59,94,66,43,30.02,29.91,6,4,0,0.00
2013-9-4,87,80,71,64,62,60,76,56,42,30.13,30.06,6,4,0,0.00
2013-9-17,90,74,65,66,63,56,96,72,32,30.15,30.01,4,3,0,0.00
2013-9-18,73,73,73,66,65,64,77,76,75,30.03,30.02,3,2,0,0.00
2013-9-19,90,82,72,70,67,63,90,63,43,30.08,29.93,5,4,0,0.00
2013-9-20,80,73,70,71,69,65,97,88,60,29.94,29.83,5,4,0,1.08
2013-9-21,76,66,60,68,54,-100,98,73,43,29.92,29.82,11,8,0,0.00
2013-9-22,77,68,54,56,53,50,98,62,40,29.96,29.85,7,4,0,0.00
2013-9-23,80,65,56,62,56,54,93,75,43,29.93,29.86,5,2,0,0.00
2013-9-24,85,78,67,69,67,62,94,70,53,29.89,29.78,5,3,0,0.00
2013-9-25,82,73,66,69,64,59,98,79,46,29.83,29.78,6,2,0,0.00
2013-9-26,86,76,60,69,64,60,98,70,46,29.97,29.83,4,2,0,0.00
2013-9-27,86,76,67,69,65,60,98,72,42,30.08,29.98,5,3,0,0.00
2013-10-2,81,77,72,70,67,63,89,73,59,30.09,30.00,5,4,0,0.01
2013-10-3,86,77,69,71,68,66,92,76,54,30.03,29.94,5,4,0,0.00
2013-10-4,85,79,71,71,70,69,94,76,60,30.02,29.96,6,4,0,0.00
2013-10-5,90,81,73,71,68,65,89,67,45,30.02,29.87,7,5,0,0.00
2013-10-6,68,59,55,54,51,48,93,78,48,29.97,29.89,8,5,0,0.01
2013-10-7,67,58,50,50,48,47,93,71,50,30.07,29.95,9,5,0,0.00
2013-10-8,72,60,47,50,48,44,97,69,36,30.14,30.04,6,4,0,0.00
2013-11-7,40,40,40,37,37,37,87,87,87,30.32,30.32,5,5,0,0.00
2013-11-8,63,56,50,42,40,38,73,56,39,30.23,30.19,2,2,0,0.00
2013-11-9,52,35,52,47,-2,-100,85,57,85,30.26,30.24,1,1,0,0.00
2013-11-10,67,60,54,47,44,40,62,55,45,30.35,30.29,6,5,0,0.00
2013-11-11,56,52,45,49,44,37,76,76,75,30.23,30.17,1,1,0,0.00
2013-11-13,43,43,43,24,24,24,46,46,46,30.46,30.46,1,1,0,0.00
2013-11-14,48,48,48,26,26,26,42,42,42,30.36,30.36,5,5,0,0.00
2013-11-16,-200,0,200,-100,-100,-100,0,0,100,29.85,29.85,7,7,0,0.00
2013-11-17,79,79,79,68,68,68,69,69,69,29.75,29.75,9,9,0,0.00
2013-11-18,56,51,47,37,35,33,58,54,49,30.18,30.05,8,4,0,0.00
2013-11-19,54,46,41,31,30,29,67,55,39,30.29,30.15,6,4,0,0.00
2013-11-28,33,29,23,29,24,20,88,80,68,30.43,30.36,4,2,0,0.00
2013-11-29,38,38,38,31,31,31,75,75,75,30.52,30.52,2,2,0,0.00
2013-11-30,50,43,46,38,22,-100,71,58,61,30.21,30.20,4,4,0,0.00
2013-12-1,48,48,48,39,39,39,71,71,71,30.16,30.16,3,3,0,0.00
2013-12-2,56,54,52,53,52,51,98,94,90,29.77,29.74,3,2,0,0.00
2013-12-3,58,56,55,58,56,54,99,99,99,29.74,29.65,5,4,0,0.00
2013-12-4,74,68,63,63,62,61,94,82,69,29.76,29.73,5,5,0,0.00
2013-12-11,36,30,24,33,28,24,97,92,86,30.47,30.37,2,2,0,0.00
2013-12-12,43,32,24,21,20,19,91,65,38,30.61,30.48,3,3,0,0.00
2013-12-13,45,41,35,28,27,26,72,58,48,30.25,30.12,5,4,0,0.00
2013-12-14,40,31,38,38,8,-100,99,70,76,30.10,29.89,13,10,0,0.00
2013-12-15,39,36,32,33,30,27,80,79,78,30.27,30.19,6,4,0,0.00
2013-12-16,59,53,42,39,37,34,74,56,45,30.23,30.13,8,7,0,0.00
2013-12-17,46,42,38,38,36,34,85,78,72,30.22,30.14,3,2,0,0.00
2013-12-18,52,38,33,37,34,31,97,84,56,30.30,30.27,5,2,0,0.00
2013-12-19,56,50,45,49,44,40,83,80,77,30.11,29.96,8,6,0,0.00
2013-12-20,66,64,61,64,62,58,95,92,88,29.97,29.81,7,6,0,0.41
2013-12-31,32,32,32,29,29,29,90,90,90,30.44,30.44,2,2,0,0.00
2014-1-1,51,39,29,37,32,27,92,77,58,30.21,30.08,5,4,0,0.00
2014-1-2,28,28,28,21,21,21,73,73,73,30.19,30.19,16,16,0,0.00